Time;durP1;ratioP1;P1;durP2;ratioP2;P2;SDS_P1;SDS_P2;PMS_P1;PMS_P2;Temp;Humidity;BMP_temperature;BMP_pressure;BME280_temperature;BME280_humidity;BME280_pressure;Samples;Min_cycle;Max_cycle;Signal;HPM_P1;HPM_P2
2021/12/10 14:46:12;;;;;;;33.30;22.10;;;;;;;2.95;71.64;99177.02;100169;1355;544772;-74
2021/12/10 14:49:06;;;;;;;32.80;20.70;;;;;;;2.70;71.08;99177.46;102266;1330;23118;-74
2021/12/10 14:52:11;;;;;;;42.20;24.10;;;;;;;2.54;71.44;99178.97;102547;1331;23419;-74
2021/12/10 14:55:05;;;;;;;33.90;21.50;;;;;;;2.53;72.07;99183.84;102376;1331;22630;-74
2021/12/10 14:57:54;;;;;;;35.40;21.60;;;;;;;2.52;71.94;99184.52;102390;1330;23074;-76
2021/12/10 15:00:58;;;;;;;42.50;25.40;;;;;;;2.53;72.12;99193.23;101808;1331;359246;-76
2021/12/10 15:03:47;;;;;;;36.10;22.60;;;;;;;2.57;72.23;99198.11;102623;1330;22589;-74
2021/12/10 15:06:34;;;;;;;42.90;25.60;;;;;;;2.59;72.11;99200.72;103433;1319;22588;-73
2021/12/10 15:09:21;;;;;;;38.80;23.50;;;;;;;2.62;72.29;99198.65;103284;1319;25013;-74
2021/12/10 15:12:10;;;;;;;45.70;28.80;;;;;;;2.66;72.18;99201.79;103281;1320;23987;-74
2021/12/10 15:14:59;;;;;;;41.90;24.70;;;;;;;2.68;72.04;99203.01;103304;1314;25395;-74
2021/12/10 15:17:34;;;;;;;41.10;22.60;;;;;;;2.61;71.65;99208.56;103148;1323;24137;-76
2021/12/10 15:20:30;;;;;;;34.30;23.10;;;;;;;2.51;71.32;99209.02;103338;1317;24398;-75
2021/12/10 15:22:58;;;;;;;37.20;22.90;;;;;;;2.41;71.39;99212.46;103024;1318;23113;-76
2021/12/10 15:25:27;;;;;;;37.80;22.80;;;;;;;2.38;71.92;99215.73;103084;1317;25319;-77
2021/12/10 15:28:02;;;;;;;34.90;22.30;;;;;;;2.43;71.84;99222.71;102896;1322;22603;-75
2021/12/10 15:30:38;;;;;;;38.90;24.20;;;;;;;2.39;71.91;99216.09;103049;1318;25381;-76
2021/12/10 15:33:10;;;;;;;39.80;24.30;;;;;;;2.43;72.08;99213.16;103093;1316;25346;-77
2021/12/10 15:35:42;;;;;;;42.30;25.50;;;;;;;2.44;72.24;99216.64;103042;1319;23127;-77
2021/12/10 15:38:24;;;;;;;37.40;25.00;;;;;;;2.46;72.12;99223.09;103653;1318;22647;-76
2021/12/10 15:41:08;;;;;;;43.40;26.30;;;;;;;2.44;72.14;99219.23;103401;1319;22647;-76
2021/12/10 15:43:39;;;;;;;39.70;24.20;;;;;;;2.44;72.09;99224.65;103382;1319;24229;-77
2021/12/10 15:46:10;;;;;;;42.20;25.20;;;;;;;2.38;71.93;99222.52;103495;1318;25293;-76
2021/12/10 15:48:42;;;;;;;38.00;24.60;;;;;;;2.32;72.09;99221.63;103587;1312;25249;-76
2021/12/10 15:51:15;;;;;;;40.60;26.00;;;;;;;2.21;72.25;99221.21;103647;1312;22645;-76
2021/12/10 15:53:46;;;;;;;42.60;26.60;;;;;;;2.27;72.78;99224.71;103746;1318;22781;-77
2021/12/10 15:56:23;;;;;;;40.70;25.70;;;;;;;2.36;72.82;99223.89;103545;1319;25308;-77
2021/12/10 15:58:51;;;;;;;44.90;27.30;;;;;;;2.42;72.64;99225.33;103855;1312;22600;-76
2021/12/10 16:01:23;;;;;;;39.30;23.80;;;;;;;2.45;72.63;99221.17;103009;1323;24295;-75
2021/12/10 16:04:13;;;;;;;44.50;26.60;;;;;;;2.46;72.32;99221.35;102899;1321;24281;-75
2021/12/10 16:06:40;;;;;;;37.20;22.30;;;;;;;2.43;72.22;99226.71;103103;1323;25919;-75
2021/12/10 16:09:16;;;;;;;44.90;27.20;;;;;;;2.35;71.89;99232.05;103039;1323;24220;-75
2021/12/10 16:11:46;;;;;;;45.90;26.40;;;;;;;2.31;72.34;99233.77;102908;1323;22560;-76
2021/12/10 16:14:15;;;;;;;44.00;26.80;;;;;;;2.31;72.21;99237.07;102960;1323;25423;-76
2021/12/10 16:16:46;;;;;;;43.00;27.70;;;;;;;2.22;72.32;99238.23;102707;1324;22792;-75
2021/12/10 16:19:17;;;;;;;40.00;25.50;;;;;;;2.22;72.49;99241.70;102851;1320;22583;-75
2021/12/10 16:21:50;;;;;;;40.30;26.30;;;;;;;2.16;72.55;99239.42;103365;1320;22646;-76
2021/12/10 16:24:25;;;;;;;42.10;26.60;;;;;;;2.14;72.77;99235.75;103121;1320;26751;-76
2021/12/10 16:27:00;;;;;;;45.70;27.30;;;;;;;2.19;73.09;99236.13;103429;1320;24729;-75
2021/12/10 16:29:30;;;;;;;44.30;27.50;;;;;;;2.21;72.92;99236.67;103297;1320;24372;-75
2021/12/10 16:32:10;;;;;;;48.80;27.00;;;;;;;2.15;72.86;99231.42;103367;1318;25612;-75
2021/12/10 16:34:39;;;;;;;47.20;28.10;;;;;;;2.16;73.02;99234.90;103622;1318;22577;-75
2021/12/10 16:37:09;;;;;;;47.60;27.80;;;;;;;2.19;73.32;99241.35;103353;1319;23934;-74
2021/12/10 16:39:40;;;;;;;46.80;28.60;;;;;;;2.27;73.21;99244.34;103421;1319;22593;-76
2021/12/10 16:42:08;;;;;;;50.00;30.40;;;;;;;2.32;73.19;99246.98;103098;1319;22566;-76
2021/12/10 16:44:36;;;;;;;39.70;24.70;;;;;;;2.31;72.95;99244.02;102997;1323;24223;-77
2021/12/10 16:47:09;;;;;;;40.50;26.90;;;;;;;2.20;72.67;99242.05;103104;1323;23369;-76
2021/12/10 16:49:39;;;;;;;40.30;26.00;;;;;;;2.14;72.98;99245.31;103002;1323;22608;-76
2021/12/10 16:52:15;;;;;;;42.30;27.00;;;;;;;2.10;73.02;99242.34;102951;1324;25310;-77
2021/12/10 16:55:09;;;;;;;40.30;26.60;;;;;;;2.09;73.32;99234.52;103226;1324;22725;-76
2021/12/10 16:57:37;;;;;;;45.50;29.10;;;;;;;2.07;73.17;99232.76;103156;1324;22718;-79
2021/12/10 17:00:22;;;;;;;46.20;27.70;;;;;;;2.12;73.56;99235.91;102956;1320;25998;-76
2021/12/10 17:02:50;;;;;;;51.30;29.60;;;;;;;2.16;73.36;99240.29;103997;1320;24809;-75
2021/12/10 17:05:25;;;;;;;38.80;24.10;;;;;;;2.20;73.34;99244.83;105356;1316;22593;-75
2021/12/10 17:07:57;;;;;;;49.80;27.60;;;;;;;2.19;73.25;99244.31;105629;1320;22671;-74
2021/12/10 17:10:41;;;;;;;51.10;30.20;;;;;;;2.19;73.25;99242.21;104253;1318;22747;-77
2021/12/10 17:13:14;;;;;;;46.50;26.10;;;;;;;2.26;73.51;99244.70;105259;1318;22563;-74
2021/12/10 17:15:42;;;;;;;45.60;28.50;;;;;;;2.25;73.14;99242.60;105669;1318;22639;-75
2021/12/10 17:18:13;;;;;;;51.90;31.50;;;;;;;2.23;73.20;99240.16;104490;1315;24218;-76
2021/12/10 17:21:09;;;;;;;48.80;29.40;;;;;;;2.25;73.26;99241.91;103406;1320;25392;-75
2021/12/10 17:23:38;;;;;;;47.10;30.00;;;;;;;2.35;73.44;99250.83;103564;1318;25414;-75
2021/12/10 17:26:09;;;;;;;52.20;29.00;;;;;;;2.38;73.37;99245.98;103421;1319;22656;-76
2021/12/10 17:28:42;;;;;;;55.00;32.50;;;;;;;2.41;73.36;99247.04;103333;1319;22692;-77
2021/12/10 17:31:14;;;;;;;55.60;29.60;;;;;;;2.45;73.38;99247.05;103171;1320;22564;-76
2021/12/10 17:33:49;;;;;;;56.40;31.70;;;;;;;2.52;73.50;99248.48;103244;1318;23113;-75
2021/12/10 17:36:21;;;;;;;51.00;29.80;;;;;;;2.56;73.16;99250.42;103746;1318;22563;-75
2021/12/10 17:38:52;;;;;;;55.10;31.20;;;;;;;2.55;73.04;99248.85;103345;1318;24214;-75
2021/12/10 17:41:24;;;;;;;51.30;29.00;;;;;;;2.55;72.94;99247.64;103584;1317;25620;-76
2021/12/10 17:43:54;;;;;;;56.30;31.10;;;;;;;2.57;73.18;99245.04;103522;1318;25234;-75
2021/12/10 17:46:29;;;;;;;55.20;29.70;;;;;;;2.63;73.19;99244.71;103483;1318;25617;-75
2021/12/10 17:49:00;;;;;;;57.80;32.10;;;;;;;2.68;73.06;99243.70;103444;1316;22577;-76
2021/12/10 17:51:31;;;;;;;57.00;30.20;;;;;;;2.74;73.09;99245.11;103383;1318;22648;-77
2021/12/10 17:54:06;;;;;;;54.00;29.90;;;;;;;2.79;72.86;99241.48;103616;1317;24378;-76
2021/12/10 17:56:36;;;;;;;54.00;30.60;;;;;;;2.83;72.62;99242.02;103575;1319;22566;-75
2021/12/10 17:59:07;;;;;;;54.40;31.70;;;;;;;2.87;72.34;99245.86;103392;1318;22684;-75
2021/12/10 18:01:40;;;;;;;53.20;29.90;;;;;;;2.85;72.07;99245.52;103388;1318;22573;-75
2021/12/10 18:04:10;;;;;;;50.70;31.60;;;;;;;2.77;72.06;99243.73;103480;1318;22614;-77
2021/12/10 18:06:41;;;;;;;53.50;31.10;;;;;;;2.74;72.17;99246.67;103419;1318;23463;-75
2021/12/10 18:09:25;;;;;;;58.30;33.00;;;;;;;2.76;72.46;99250.86;103398;1318;23266;-75
2021/12/10 18:11:57;;;;;;;52.80;29.10;;;;;;;2.80;72.34;99254.18;103228;1317;24248;-75
2021/12/10 18:14:42;;;;;;;57.20;31.30;;;;;;;2.75;71.98;99255.02;103353;1318;22597;-76
2021/12/10 18:17:17;;;;;;;56.00;31.60;;;;;;;2.69;72.20;99254.83;103209;1319;23333;-76
2021/12/10 18:19:52;;;;;;;55.70;30.80;;;;;;;2.75;72.34;99260.24;103457;1318;22548;-77
2021/12/10 18:22:20;;;;;;;54.00;31.00;;;;;;;2.79;72.39;99257.48;103213;1318;22767;-76
2021/12/10 18:24:55;;;;;;;59.10;32.00;;;;;;;2.84;72.42;99258.90;103099;1318;22533;-76
2021/12/10 18:27:27;;;;;;;55.20;30.00;;;;;;;2.92;72.46;99263.09;103320;1318;22722;-77
2021/12/10 18:29:54;;;;;;;55.20;31.80;;;;;;;2.98;72.40;99259.64;102957;1324;24418;-77
2021/12/10 18:32:26;;;;;;;58.70;32.60;;;;;;;3.05;72.32;99266.80;103050;1323;22702;-74
2021/12/10 18:34:58;;;;;;;59.30;31.90;;;;;;;3.07;72.00;99270.46;103066;1324;22656;-76
2021/12/10 18:37:32;;;;;;;51.40;31.00;;;;;;;3.07;72.01;99275.16;103086;1323;22608;-76
2021/12/10 18:40:08;;;;;;;49.10;30.60;;;;;;;3.05;71.78;99271.50;102816;1324;25552;-76
2021/12/10 18:42:39;;;;;;;55.90;31.60;;;;;;;2.97;71.73;99271.64;102865;1324;25347;-75
2021/12/10 18:45:21;;;;;;;58.10;32.10;;;;;;;2.96;71.90;99276.67;102672;1324;24776;-76
2021/12/10 18:47:50;;;;;;;55.00;30.00;;;;;;;3.01;71.75;99280.35;103053;1318;24217;-76
2021/12/10 18:50:24;;;;;;;58.30;32.80;;;;;;;3.04;71.61;99282.27;103534;1318;24379;-76
2021/12/10 18:52:51;;;;;;;52.20;30.90;;;;;;;3.00;71.58;99286.09;103302;1319;25237;-77
2021/12/10 18:55:24;;;;;;;56.60;31.50;;;;;;;3.01;71.47;99289.92;103228;1319;25714;-76
2021/12/10 18:57:52;;;;;;;53.00;29.90;;;;;;;3.01;71.46;99290.61;103238;1321;24460;-76
2021/12/10 19:00:38;;;;;;;50.80;30.70;;;;;;;2.95;71.20;99286.06;103153;1321;24227;-76
2021/12/10 19:03:10;;;;;;;52.60;29.90;;;;;;;2.91;71.53;99283.27;103317;1320;25622;-75
2021/12/10 19:05:51;;;;;;;52.20;31.40;;;;;;;2.90;71.32;99293.88;103160;1320;24003;-76
2021/12/10 19:08:28;;;;;;;52.70;30.70;;;;;;;2.85;71.41;99295.07;103237;1320;22796;-76
2021/12/10 19:11:00;;;;;;;53.60;30.70;;;;;;;2.83;71.56;99297.14;102978;1317;23995;-77
2021/12/10 19:13:35;;;;;;;48.80;29.70;;;;;;;2.79;71.42;99297.13;103148;1322;22581;-76
2021/12/10 19:16:16;;;;;;;53.60;31.70;;;;;;;2.78;71.54;99299.20;103134;1322;22590;-77
2021/12/10 19:19:04;;;;;;;53.90;30.60;;;;;;;2.80;71.67;99298.70;103089;1320;24118;-76
2021/12/10 19:21:44;;;;;;;53.50;29.00;;;;;;;2.84;71.62;99297.16;103126;1322;25313;-76
2021/12/10 19:24:34;;;;;;;58.20;32.10;;;;;;;2.89;71.89;99292.65;103082;1323;22905;-77
2021/12/10 19:27:22;;;;;;;52.40;30.50;;;;;;;2.97;71.86;99293.04;103097;1323;25132;-76
2021/12/10 19:29:53;;;;;;;59.80;33.40;;;;;;;3.03;71.79;99295.66;103247;1318;24166;-76
2021/12/10 19:32:30;;;;;;;55.20;32.00;;;;;;;3.06;71.83;99303.68;104340;1318;22675;-78
2021/12/10 19:35:19;;;;;;;55.10;31.30;;;;;;;3.04;71.55;99306.98;103133;1326;22818;-76
2021/12/10 19:37:55;;;;;;;60.40;33.60;;;;;;;3.02;71.39;99309.24;102095;1332;22816;-76
2021/12/10 19:40:35;;;;;;;57.00;34.40;;;;;;;3.00;71.40;99312.52;102312;1331;25994;-77
2021/12/10 19:43:26;;;;;;;53.40;31.80;;;;;;;2.93;71.34;99311.10;102061;1332;23059;-77
2021/12/10 19:46:14;;;;;;;54.80;32.70;;;;;;;2.93;71.68;99317.36;102307;1329;23131;-76
2021/12/10 19:49:03;;;;;;;54.30;30.30;;;;;;;2.93;71.77;99320.67;102485;1329;22572;-77
2021/12/10 19:51:34;;;;;;;58.70;32.50;;;;;;;2.95;71.74;99321.89;102813;1329;22627;-77
2021/12/10 19:54:06;;;;;;;60.20;34.00;;;;;;;2.98;71.78;99320.52;102963;1319;24325;-78
2021/12/10 19:56:39;;;;;;;56.80;32.70;;;;;;;2.98;71.86;99320.52;103117;1320;22676;-78
2021/12/10 19:59:13;;;;;;;55.90;33.00;;;;;;;3.03;71.71;99328.55;103267;1320;24268;-79
2021/12/10 20:02:08;;;;;;;56.80;32.20;;;;;;;3.05;71.77;99328.38;103166;1321;22609;-77
2021/12/10 20:05:02;;;;;;;69.00;35.90;;;;;;;3.00;71.47;99330.96;103251;1318;25766;-78
2021/12/10 20:07:33;;;;;;;63.20;33.60;;;;;;;2.89;71.43;99330.73;103387;1317;23937;-77
2021/12/10 20:10:17;;;;;;;60.90;33.30;;;;;;;2.80;71.53;99329.82;103277;1321;22703;-77
2021/12/10 20:13:07;;;;;;;63.10;33.00;;;;;;;2.71;71.81;99328.73;103096;1321;25297;-79
2021/12/10 20:15:40;;;;;;;55.40;30.60;;;;;;;2.67;71.79;99322.63;103162;1320;22633;-77
2021/12/10 20:18:15;;;;;;;57.90;32.50;;;;;;;2.56;71.69;99323.07;103188;1320;24288;-76
2021/12/10 20:20:57;;;;;;;63.10;34.60;;;;;;;2.56;72.17;99324.46;103141;1321;22808;-78
2021/12/10 20:23:38;;;;;;;57.50;32.50;;;;;;;2.60;72.14;99324.67;103360;1320;23048;-77
2021/12/10 20:26:34;;;;;;;68.80;35.00;;;;;;;2.50;71.88;99324.95;103197;1321;25263;-76
2021/12/10 20:29:11;;;;;;;59.70;33.00;;;;;;;2.52;72.35;99323.75;103138;1320;24220;-77
2021/12/10 20:31:47;;;;;;;64.60;35.00;;;;;;;2.54;72.33;99320.98;103123;1321;24434;-77
2021/12/10 20:34:23;;;;;;;61.90;35.40;;;;;;;2.57;72.30;99323.42;103145;1321;26649;-76
2021/12/10 20:37:04;;;;;;;67.70;34.80;;;;;;;2.59;72.46;99325.54;103235;1318;25536;-77
2021/12/10 20:39:48;;;;;;;63.20;34.20;;;;;;;2.59;72.27;99325.53;103364;1318;24249;-76
2021/12/10 20:42:27;;;;;;;63.50;34.40;;;;;;;2.56;72.28;99322.91;103125;1319;24252;-76
2021/12/10 20:44:59;;;;;;;59.40;32.90;;;;;;;2.54;72.25;99326.02;103192;1319;22667;-76
2021/12/10 20:47:35;;;;;;;62.00;34.40;;;;;;;2.54;72.34;99328.61;103266;1320;23957;-77
2021/12/10 20:50:17;;;;;;;61.20;33.10;;;;;;;2.55;72.36;99332.62;103151;1323;24531;-76
2021/12/10 20:52:53;;;;;;;59.50;34.80;;;;;;;2.56;72.22;99334.03;103426;1323;22624;-77
2021/12/10 20:55:26;;;;;;;64.20;37.10;;;;;;;2.59;72.37;99335.26;103029;1322;22720;-76
2021/12/10 20:57:57;;;;;;;65.00;36.00;;;;;;;2.64;72.29;99340.50;103186;1321;22821;-78
2021/12/10 21:00:49;;;;;;;59.70;34.90;;;;;;;2.66;72.14;99340.87;103106;1323;22797;-76
2021/12/10 21:03:25;;;;;;;64.90;34.70;;;;;;;2.63;72.17;99342.59;103292;1322;22719;-76
2021/12/10 21:06:02;;;;;;;60.60;35.60;;;;;;;2.66;72.19;99343.65;103185;1321;22621;-79
2021/12/10 21:08:39;;;;;;;60.80;32.70;;;;;;;2.64;72.02;99347.29;103485;1319;22533;-79
2021/12/10 21:11:16;;;;;;;59.50;32.50;;;;;;;2.63;71.85;99350.77;103203;1319;23981;-78
2021/12/10 21:13:47;;;;;;;60.40;34.10;;;;;;;2.55;71.85;99353.31;103621;1318;24001;-76
2021/12/10 21:16:27;;;;;;;59.40;32.70;;;;;;;2.52;71.91;99358.67;103552;1318;22654;-76
2021/12/10 21:19:04;;;;;;;59.60;32.60;;;;;;;2.48;71.91;99362.30;103464;1319;23271;-76
2021/12/10 21:21:44;;;;;;;58.50;32.60;;;;;;;2.46;72.07;99363.34;103521;1318;23107;-76
2021/12/10 21:24:22;;;;;;;67.40;34.10;;;;;;;2.42;71.97;99366.77;103388;1319;22665;-76
2021/12/10 21:26:56;;;;;;;61.60;32.70;;;;;;;2.39;71.99;99374.40;103216;1319;25445;-76
2021/12/10 21:29:32;;;;;;;61.50;33.80;;;;;;;2.40;72.20;99378.41;103342;1318;23940;-75
2021/12/10 21:32:12;;;;;;;56.40;31.20;;;;;;;2.41;71.99;99383.10;103340;1318;25620;-75
2021/12/10 21:34:48;;;;;;;63.80;34.70;;;;;;;2.33;71.96;99384.95;103436;1316;25532;-76
2021/12/10 21:40:03;;;;;;;63.90;35.00;;;;;;;2.20;71.88;99392.65;103249;1322;22574;-76
2021/12/10 21:42:37;;;;;;;59.50;34.00;;;;;;;2.16;72.27;99391.92;102992;1322;22620;-77
2021/12/10 21:45:18;;;;;;;58.40;33.30;;;;;;;2.10;71.90;99395.00;103071;1322;24803;-76
2021/12/10 21:47:48;;;;;;;51.40;30.80;;;;;;;1.92;71.88;99400.21;103048;1323;24273;-75
2021/12/10 21:50:20;;;;;;;65.00;33.60;;;;;;;1.80;72.15;99403.73;103066;1322;22566;-77
2021/12/10 21:52:49;;;;;;;59.80;33.10;;;;;;;1.70;72.42;99407.27;103042;1322;23946;-77
2021/12/10 21:55:22;;;;;;;70.90;38.00;;;;;;;1.68;72.65;99408.64;103005;1321;25524;-78
2021/12/10 21:57:50;;;;;;;64.60;34.70;;;;;;;1.66;72.72;99406.17;103069;1318;22651;-78
2021/12/10 22:00:35;;;;;;;62.70;34.70;;;;;;;1.65;73.02;99410.17;103622;1318;22563;-77
2021/12/10 22:03:07;;;;;;;61.90;32.10;;;;;;;1.68;73.12;99409.84;103413;1318;22558;-76
2021/12/10 22:05:43;;;;;;;61.10;34.50;;;;;;;1.64;72.95;99412.77;103386;1317;22579;-79
2021/12/10 22:08:12;;;;;;;64.60;34.20;;;;;;;1.58;73.06;99413.56;103495;1317;22587;-78
2021/12/10 22:10:58;;;;;;;63.40;35.30;;;;;;;1.59;73.32;99415.48;103544;1319;24474;-79
2021/12/10 22:13:38;;;;;;;63.10;33.50;;;;;;;1.63;73.39;99414.66;103407;1319;22568;-79
2021/12/10 22:16:18;;;;;;;66.60;33.40;;;;;;;1.65;73.42;99411.55;103551;1317;22682;-79
2021/12/10 22:18:54;;;;;;;61.90;33.80;;;;;;;1.68;73.30;99408.29;103462;1318;25372;-78
2021/12/10 22:21:28;;;;;;;64.80;34.10;;;;;;;1.68;73.35;99408.45;103459;1318;22719;-79
2021/12/10 22:24:24;;;;;;;58.70;33.80;;;;;;;1.72;73.39;99405.91;103417;1319;25355;-77
2021/12/10 22:27:04;;;;;;;65.80;35.50;;;;;;;1.77;73.42;99405.45;103372;1319;26499;-78
2021/12/10 22:29:35;;;;;;;63.00;34.00;;;;;;;1.77;73.30;99409.95;103318;1319;24386;-79
2021/12/10 22:32:15;;;;;;;56.10;32.80;;;;;;;1.80;73.39;99410.50;103378;1319;24275;-79
2021/12/10 22:34:53;;;;;;;64.90;36.10;;;;;;;1.82;73.31;99409.32;103362;1319;26696;-78
2021/12/10 22:37:22;;;;;;;68.00;35.40;;;;;;;1.81;73.19;99405.31;103445;1318;22818;-78
2021/12/10 22:40:03;;;;;;;57.70;31.50;;;;;;;1.80;73.13;99406.16;103625;1318;24249;-81
2021/12/10 22:42:42;;;;;;;68.10;33.90;;;;;;;1.69;73.02;99404.83;103390;1320;22569;-75
2021/12/10 22:45:22;;;;;;;70.60;32.50;;;;;;;1.67;73.30;99406.88;103277;1318;24669;-77
2021/12/10 22:47:56;;;;;;;85.10;35.30;;;;;;;1.71;73.49;99412.32;103473;1318;22582;-79
2021/12/10 22:50:30;;;;;;;68.10;34.60;;;;;;;1.74;73.34;99417.91;103467;1318;22803;-81
2021/12/10 22:52:59;;;;;;;60.70;33.70;;;;;;;1.81;73.42;99421.10;103199;1318;22750;-78
2021/12/10 22:55:32;;;;;;;62.70;34.60;;;;;;;1.81;73.18;99421.11;103600;1319;22626;-78
2021/12/10 22:58:05;;;;;;;69.60;34.00;;;;;;;1.82;73.20;99420.42;103328;1318;22732;-78
2021/12/10 23:00:38;;;;;;;66.70;35.70;;;;;;;1.84;73.32;99422.00;103131;1319;238982;-75
2021/12/10 23:03:11;;;;;;;63.80;34.70;;;;;;;1.83;73.14;99425.64;103585;1317;23156;-78
2021/12/10 23:05:45;;;;;;;63.80;34.10;;;;;;;1.79;73.23;99426.30;103629;1318;23312;-80
2021/12/10 23:08:30;;;;;;;57.00;32.80;;;;;;;1.81;73.52;99428.41;103789;1316;24256;-79
2021/12/10 23:11:04;;;;;;;62.30;34.20;;;;;;;1.85;73.49;99437.98;103449;1317;22607;-79
2021/12/10 23:13:45;;;;;;;63.20;32.50;;;;;;;1.88;73.55;99447.23;103448;1317;24218;-79
2021/12/10 23:16:30;;;;;;;68.10;35.50;;;;;;;1.91;73.39;99443.80;103464;1318;22641;-85
2021/12/10 23:19:16;;;;;;;63.50;35.40;;;;;;;2.00;73.52;99443.70;103253;1318;22605;-80
2021/12/10 23:21:45;;;;;;;73.40;37.10;;;;;;;2.01;73.22;99442.14;103326;1317;22854;-77
2021/12/10 23:24:37;;;;;;;65.70;35.80;;;;;;;2.01;73.26;99438.16;103537;1317;25233;-77
2021/12/10 23:27:36;;;;;;;65.40;36.40;;;;;;;2.02;73.23;99442.17;103621;1317;22574;-77
2021/12/10 23:30:13;;;;;;;67.60;35.00;;;;;;;2.04;73.36;99450.00;103547;1317;22581;-76
2021/12/10 23:32:46;;;;;;;62.30;34.40;;;;;;;2.07;73.54;99445.86;103609;1318;25253;-76
2021/12/10 23:35:19;;;;;;;63.30;33.70;;;;;;;2.14;73.44;99447.15;103826;1318;23439;-76
2021/12/10 23:37:54;;;;;;;64.60;33.90;;;;;;;2.17;73.40;99447.02;103071;1321;26520;-77
2021/12/10 23:40:29;;;;;;;58.00;32.70;;;;;;;2.18;73.26;99460.91;103190;1326;24001;-79
2021/12/10 23:43:04;;;;;;;63.40;35.80;;;;;;;2.18;73.17;99467.52;102998;1324;25278;-76
2021/12/10 23:45:42;;;;;;;67.00;32.90;;;;;;;2.20;73.10;99473.27;102911;1324;25325;-82
2021/12/10 23:48:12;;;;;;;71.20;34.90;;;;;;;2.24;73.09;99473.84;102722;1329;23107;-77
2021/12/10 23:50:45;;;;;;;64.80;36.20;;;;;;;2.28;73.09;99474.91;102586;1329;23080;-78
2021/12/10 23:53:16;;;;;;;66.00;35.30;;;;;;;2.28;73.00;99477.67;102596;1329;22583;-78
2021/12/10 23:55:50;;;;;;;66.50;35.00;;;;;;;2.28;73.08;99481.33;102663;1326;25387;-78
2021/12/10 23:58:22;;;;;;;65.50;36.30;;;;;;;2.29;72.99;99485.16;103014;1324;22778;-77
